sensor_id;sensor_type;location;lat;lon;timestamp;P1;durP1;ratioP1;P2;durP2;ratioP2
4198;SDS011;2113;50.946;14.610;2023-04-23T00:01:14;10.77;;;4.93;;
4198;SDS011;2113;50.946;14.610;2023-04-23T00:03:45;8.30;;;5.70;;
4198;SDS011;2113;50.946;14.610;2023-04-23T00:06:16;9.77;;;5.68;;
4198;SDS011;2113;50.946;14.610;2023-04-23T00:08:45;9.45;;;5.60;;
4198;SDS011;2113;50.946;14.610;2023-04-23T00:11:16;8.98;;;4.88;;
4198;SDS011;2113;50.946;14.610;2023-04-23T00:13:44;9.73;;;5.30;;
4198;SDS011;2113;50.946;14.610;2023-04-23T00:16:15;8.70;;;4.32;;
4198;SDS011;2113;50.946;14.610;2023-04-23T00:18:45;9.32;;;5.68;;
4198;SDS011;2113;50.946;14.610;2023-04-23T00:21:13;7.30;;;4.80;;
4198;SDS011;2113;50.946;14.610;2023-04-23T00:23:42;10.77;;;5.28;;
4198;SDS011;2113;50.946;14.610;2023-04-23T00:26:11;8.23;;;5.40;;
4198;SDS011;2113;50.946;14.610;2023-04-23T00:28:40;8.90;;;5.95;;
4198;SDS011;2113;50.946;14.610;2023-04-23T00:31:08;6.95;;;4.93;;
4198;SDS011;2113;50.946;14.610;2023-04-23T00:33:36;9.73;;;5.35;;
4198;SDS011;2113;50.946;14.610;2023-04-23T00:36:05;9.07;;;5.28;;
4198;SDS011;2113;50.946;14.610;2023-04-23T00:38:34;10.98;;;5.82;;
4198;SDS011;2113;50.946;14.610;2023-04-23T00:41:03;8.88;;;5.40;;
4198;SDS011;2113;50.946;14.610;2023-04-23T00:43:36;9.02;;;5.50;;
4198;SDS011;2113;50.946;14.610;2023-04-23T00:46:04;12.05;;;7.45;;
4198;SDS011;2113;50.946;14.610;2023-04-23T00:48:33;10.32;;;5.22;;
4198;SDS011;2113;50.946;14.610;2023-04-23T00:51:02;7.13;;;5.70;;
4198;SDS011;2113;50.946;14.610;2023-04-23T00:53:32;10.48;;;5.32;;
4198;SDS011;2113;50.946;14.610;2023-04-23T00:56:00;8.68;;;5.28;;
4198;SDS011;2113;50.946;14.610;2023-04-23T00:58:30;11.40;;;6.32;;
4198;SDS011;2113;50.946;14.610;2023-04-23T01:01:01;10.07;;;6.10;;
4198;SDS011;2113;50.946;14.610;2023-04-23T01:03:31;10.10;;;5.45;;
4198;SDS011;2113;50.946;14.610;2023-04-23T01:06:02;8.68;;;5.25;;
4198;SDS011;2113;50.946;14.610;2023-04-23T01:08:31;7.13;;;5.90;;
4198;SDS011;2113;50.946;14.610;2023-04-23T01:11:02;8.50;;;5.63;;
4198;SDS011;2113;50.946;14.610;2023-04-23T01:13:31;8.85;;;5.43;;
4198;SDS011;2113;50.946;14.610;2023-04-23T01:16:02;8.65;;;5.40;;
4198;SDS011;2113;50.946;14.610;2023-04-23T01:18:30;10.15;;;6.00;;
4198;SDS011;2113;50.946;14.610;2023-04-23T01:20:59;10.63;;;5.60;;
4198;SDS011;2113;50.946;14.610;2023-04-23T01:23:29;8.75;;;4.95;;
4198;SDS011;2113;50.946;14.610;2023-04-23T01:25:58;10.73;;;6.43;;
4198;SDS011;2113;50.946;14.610;2023-04-23T01:28:26;8.38;;;5.65;;
4198;SDS011;2113;50.946;14.610;2023-04-23T01:30:55;8.73;;;5.15;;
4198;SDS011;2113;50.946;14.610;2023-04-23T01:33:23;7.35;;;4.85;;
4198;SDS011;2113;50.946;14.610;2023-04-23T01:35:53;13.13;;;5.00;;
4198;SDS011;2113;50.946;14.610;2023-04-23T01:38:22;11.88;;;5.25;;
4198;SDS011;2113;50.946;14.610;2023-04-23T01:40:53;11.38;;;5.55;;
4198;SDS011;2113;50.946;14.610;2023-04-23T01:43:21;15.07;;;5.82;;
4198;SDS011;2113;50.946;14.610;2023-04-23T01:45:50;7.50;;;4.55;;
4198;SDS011;2113;50.946;14.610;2023-04-23T01:48:18;11.60;;;6.10;;
4198;SDS011;2113;50.946;14.610;2023-04-23T01:50:47;6.95;;;4.90;;
4198;SDS011;2113;50.946;14.610;2023-04-23T01:53:16;12.85;;;5.85;;
4198;SDS011;2113;50.946;14.610;2023-04-23T01:55:45;7.25;;;5.15;;
4198;SDS011;2113;50.946;14.610;2023-04-23T01:58:15;7.15;;;4.80;;
4198;SDS011;2113;50.946;14.610;2023-04-23T02:00:45;8.40;;;5.90;;
4198;SDS011;2113;50.946;14.610;2023-04-23T02:03:13;8.98;;;5.75;;
4198;SDS011;2113;50.946;14.610;2023-04-23T02:05:42;11.02;;;6.00;;
4198;SDS011;2113;50.946;14.610;2023-04-23T02:08:11;5.93;;;4.40;;
4198;SDS011;2113;50.946;14.610;2023-04-23T02:10:39;9.35;;;5.90;;
4198;SDS011;2113;50.946;14.610;2023-04-23T02:13:07;9.23;;;5.15;;
4198;SDS011;2113;50.946;14.610;2023-04-23T02:15:37;12.57;;;6.07;;
4198;SDS011;2113;50.946;14.610;2023-04-23T02:18:06;9.02;;;4.97;;
4198;SDS011;2113;50.946;14.610;2023-04-23T02:20:35;8.07;;;4.85;;
4198;SDS011;2113;50.946;14.610;2023-04-23T02:23:06;7.40;;;5.30;;
4198;SDS011;2113;50.946;14.610;2023-04-23T02:25:35;8.90;;;5.43;;
4198;SDS011;2113;50.946;14.610;2023-04-23T02:28:05;8.32;;;4.97;;
4198;SDS011;2113;50.946;14.610;2023-04-23T02:30:34;7.20;;;5.30;;
4198;SDS011;2113;50.946;14.610;2023-04-23T02:33:04;8.82;;;5.00;;
4198;SDS011;2113;50.946;14.610;2023-04-23T02:35:32;10.98;;;6.20;;
4198;SDS011;2113;50.946;14.610;2023-04-23T02:38:00;12.25;;;6.03;;
4198;SDS011;2113;50.946;14.610;2023-04-23T02:40:29;10.68;;;5.70;;
4198;SDS011;2113;50.946;14.610;2023-04-23T02:42:58;9.57;;;5.97;;
4198;SDS011;2113;50.946;14.610;2023-04-23T02:45:26;9.25;;;5.97;;
4198;SDS011;2113;50.946;14.610;2023-04-23T02:47:54;7.50;;;5.72;;
4198;SDS011;2113;50.946;14.610;2023-04-23T02:50:24;10.30;;;6.57;;
4198;SDS011;2113;50.946;14.610;2023-04-23T02:52:52;13.27;;;5.80;;
4198;SDS011;2113;50.946;14.610;2023-04-23T02:55:20;9.75;;;5.30;;
4198;SDS011;2113;50.946;14.610;2023-04-23T02:57:50;10.07;;;5.28;;
4198;SDS011;2113;50.946;14.610;2023-04-23T03:00:19;7.60;;;5.00;;
4198;SDS011;2113;50.946;14.610;2023-04-23T03:02:48;12.90;;;5.93;;
4198;SDS011;2113;50.946;14.610;2023-04-23T03:05:16;8.35;;;5.40;;
4198;SDS011;2113;50.946;14.610;2023-04-23T03:07:46;8.98;;;5.43;;
4198;SDS011;2113;50.946;14.610;2023-04-23T03:10:14;9.75;;;6.57;;
4198;SDS011;2113;50.946;14.610;2023-04-23T03:12:42;10.02;;;5.75;;
4198;SDS011;2113;50.946;14.610;2023-04-23T03:15:11;13.38;;;4.95;;
4198;SDS011;2113;50.946;14.610;2023-04-23T03:17:40;10.98;;;5.50;;
4198;SDS011;2113;50.946;14.610;2023-04-23T03:20:09;10.93;;;5.85;;
4198;SDS011;2113;50.946;14.610;2023-04-23T03:22:39;11.05;;;5.00;;
4198;SDS011;2113;50.946;14.610;2023-04-23T03:25:08;9.07;;;5.75;;
4198;SDS011;2113;50.946;14.610;2023-04-23T03:27:37;7.97;;;5.60;;
4198;SDS011;2113;50.946;14.610;2023-04-23T03:30:07;8.48;;;5.47;;
4198;SDS011;2113;50.946;14.610;2023-04-23T03:32:37;8.18;;;6.15;;
4198;SDS011;2113;50.946;14.610;2023-04-23T03:35:06;12.18;;;6.00;;
4198;SDS011;2113;50.946;14.610;2023-04-23T03:37:38;10.95;;;5.30;;
4198;SDS011;2113;50.946;14.610;2023-04-23T03:40:06;9.38;;;5.40;;
4198;SDS011;2113;50.946;14.610;2023-04-23T03:42:39;8.95;;;5.90;;
4198;SDS011;2113;50.946;14.610;2023-04-23T03:45:18;10.60;;;5.85;;
4198;SDS011;2113;50.946;14.610;2023-04-23T03:48:04;10.98;;;5.75;;
4198;SDS011;2113;50.946;14.610;2023-04-23T03:50:33;12.35;;;5.70;;
4198;SDS011;2113;50.946;14.610;2023-04-23T03:53:21;9.65;;;4.15;;
4198;SDS011;2113;50.946;14.610;2023-04-23T03:56:29;12.25;;;5.43;;
4198;SDS011;2113;50.946;14.610;2023-04-23T03:59:09;7.65;;;6.07;;
4198;SDS011;2113;50.946;14.610;2023-04-23T04:01:37;10.68;;;6.28;;
4198;SDS011;2113;50.946;14.610;2023-04-23T04:04:05;10.65;;;6.18;;
4198;SDS011;2113;50.946;14.610;2023-04-23T04:06:34;8.98;;;5.38;;
4198;SDS011;2113;50.946;14.610;2023-04-23T04:09:02;8.88;;;5.10;;
4198;SDS011;2113;50.946;14.610;2023-04-23T04:11:35;9.45;;;4.93;;
4198;SDS011;2113;50.946;14.610;2023-04-23T04:14:03;6.90;;;5.22;;
4198;SDS011;2113;50.946;14.610;2023-04-23T04:16:32;7.88;;;5.57;;
4198;SDS011;2113;50.946;14.610;2023-04-23T04:19:01;8.93;;;6.13;;
4198;SDS011;2113;50.946;14.610;2023-04-23T04:21:29;11.75;;;6.35;;
4198;SDS011;2113;50.946;14.610;2023-04-23T04:23:59;7.85;;;5.75;;
4198;SDS011;2113;50.946;14.610;2023-04-23T04:26:28;7.95;;;5.82;;
4198;SDS011;2113;50.946;14.610;2023-04-23T04:28:59;7.70;;;5.78;;
4198;SDS011;2113;50.946;14.610;2023-04-23T04:31:27;10.48;;;6.32;;
4198;SDS011;2113;50.946;14.610;2023-04-23T04:33:56;10.00;;;5.35;;
4198;SDS011;2113;50.946;14.610;2023-04-23T04:36:25;10.43;;;6.47;;
4198;SDS011;2113;50.946;14.610;2023-04-23T04:38:54;8.77;;;5.60;;
4198;SDS011;2113;50.946;14.610;2023-04-23T04:41:24;7.88;;;5.28;;
4198;SDS011;2113;50.946;14.610;2023-04-23T04:43:53;9.85;;;6.15;;
4198;SDS011;2113;50.946;14.610;2023-04-23T04:46:23;10.63;;;5.45;;
4198;SDS011;2113;50.946;14.610;2023-04-23T04:48:55;7.55;;;5.07;;
4198;SDS011;2113;50.946;14.610;2023-04-23T04:51:23;8.82;;;5.95;;
4198;SDS011;2113;50.946;14.610;2023-04-23T04:54:00;9.95;;;6.03;;
4198;SDS011;2113;50.946;14.610;2023-04-23T04:56:35;9.95;;;5.55;;
4198;SDS011;2113;50.946;14.610;2023-04-23T04:59:10;11.70;;;5.47;;
4198;SDS011;2113;50.946;14.610;2023-04-23T05:01:44;7.40;;;5.10;;
4198;SDS011;2113;50.946;14.610;2023-04-23T05:04:15;10.45;;;5.72;;
4198;SDS011;2113;50.946;14.610;2023-04-23T05:06:50;12.77;;;6.40;;
4198;SDS011;2113;50.946;14.610;2023-04-23T05:09:20;9.27;;;5.10;;
4198;SDS011;2113;50.946;14.610;2023-04-23T05:11:51;10.68;;;5.68;;
4198;SDS011;2113;50.946;14.610;2023-04-23T05:14:22;9.05;;;5.30;;
4198;SDS011;2113;50.946;14.610;2023-04-23T05:16:56;7.75;;;5.68;;
4198;SDS011;2113;50.946;14.610;2023-04-23T05:19:28;12.15;;;6.53;;
4198;SDS011;2113;50.946;14.610;2023-04-23T05:22:00;9.20;;;5.85;;
4198;SDS011;2113;50.946;14.610;2023-04-23T05:24:30;7.45;;;5.65;;
4198;SDS011;2113;50.946;14.610;2023-04-23T05:27:00;9.10;;;5.55;;
4198;SDS011;2113;50.946;14.610;2023-04-23T05:29:29;7.72;;;6.50;;
4198;SDS011;2113;50.946;14.610;2023-04-23T05:32:03;8.30;;;5.70;;
4198;SDS011;2113;50.946;14.610;2023-04-23T05:34:34;8.85;;;5.70;;
4198;SDS011;2113;50.946;14.610;2023-04-23T05:37:13;8.35;;;6.38;;
4198;SDS011;2113;50.946;14.610;2023-04-23T05:39:47;14.25;;;5.78;;
4198;SDS011;2113;50.946;14.610;2023-04-23T05:42:18;10.88;;;6.47;;
4198;SDS011;2113;50.946;14.610;2023-04-23T05:44:48;11.63;;;6.38;;
4198;SDS011;2113;50.946;14.610;2023-04-23T05:47:20;13.00;;;6.40;;
4198;SDS011;2113;50.946;14.610;2023-04-23T05:49:53;8.90;;;5.60;;
4198;SDS011;2113;50.946;14.610;2023-04-23T05:52:24;10.02;;;6.72;;
4198;SDS011;2113;50.946;14.610;2023-04-23T05:54:58;11.75;;;5.78;;
4198;SDS011;2113;50.946;14.610;2023-04-23T05:57:30;12.82;;;6.55;;
4198;SDS011;2113;50.946;14.610;2023-04-23T06:00:02;10.52;;;6.18;;
4198;SDS011;2113;50.946;14.610;2023-04-23T06:02:45;12.00;;;6.10;;
4198;SDS011;2113;50.946;14.610;2023-04-23T06:05:19;9.20;;;4.70;;
4198;SDS011;2113;50.946;14.610;2023-04-23T06:07:50;8.52;;;5.18;;
4198;SDS011;2113;50.946;14.610;2023-04-23T06:10:28;12.18;;;6.00;;
4198;SDS011;2113;50.946;14.610;2023-04-23T06:13:02;7.50;;;5.53;;
4198;SDS011;2113;50.946;14.610;2023-04-23T06:15:34;9.48;;;5.72;;
4198;SDS011;2113;50.946;14.610;2023-04-23T06:18:11;8.25;;;5.75;;
4198;SDS011;2113;50.946;14.610;2023-04-23T06:20:48;7.07;;;5.47;;
4198;SDS011;2113;50.946;14.610;2023-04-23T06:23:20;10.57;;;6.10;;
4198;SDS011;2113;50.946;14.610;2023-04-23T06:25:58;11.82;;;5.45;;
4198;SDS011;2113;50.946;14.610;2023-04-23T06:28:43;10.55;;;6.43;;
4198;SDS011;2113;50.946;14.610;2023-04-23T06:31:42;9.07;;;5.65;;
4198;SDS011;2113;50.946;14.610;2023-04-23T06:34:17;5.85;;;4.57;;
4198;SDS011;2113;50.946;14.610;2023-04-23T06:36:54;7.07;;;4.15;;
4198;SDS011;2113;50.946;14.610;2023-04-23T06:39:29;8.93;;;5.80;;
4198;SDS011;2113;50.946;14.610;2023-04-23T06:41:59;10.68;;;5.20;;
4198;SDS011;2113;50.946;14.610;2023-04-23T06:44:44;6.40;;;5.43;;
4198;SDS011;2113;50.946;14.610;2023-04-23T06:47:19;8.68;;;4.78;;
4198;SDS011;2113;50.946;14.610;2023-04-23T06:49:50;13.80;;;5.57;;
4198;SDS011;2113;50.946;14.610;2023-04-23T06:52:24;7.82;;;5.35;;
4198;SDS011;2113;50.946;14.610;2023-04-23T06:54:58;9.10;;;5.20;;
4198;SDS011;2113;50.946;14.610;2023-04-23T06:57:28;11.40;;;5.57;;
4198;SDS011;2113;50.946;14.610;2023-04-23T07:00:13;8.75;;;5.53;;
4198;SDS011;2113;50.946;14.610;2023-04-23T07:02:47;9.15;;;6.45;;
4198;SDS011;2113;50.946;14.610;2023-04-23T07:05:26;6.78;;;5.68;;
4198;SDS011;2113;50.946;14.610;2023-04-23T07:08:00;9.73;;;5.50;;
4198;SDS011;2113;50.946;14.610;2023-04-23T07:10:32;6.03;;;5.13;;
4198;SDS011;2113;50.946;14.610;2023-04-23T07:13:09;9.00;;;5.55;;
4198;SDS011;2113;50.946;14.610;2023-04-23T07:15:42;8.68;;;5.22;;
4198;SDS011;2113;50.946;14.610;2023-04-23T07:18:16;7.78;;;5.45;;
4198;SDS011;2113;50.946;14.610;2023-04-23T07:20:52;13.98;;;6.95;;
4198;SDS011;2113;50.946;14.610;2023-04-23T07:23:22;6.40;;;5.10;;
4198;SDS011;2113;50.946;14.610;2023-04-23T07:25:55;10.13;;;5.95;;
4198;SDS011;2113;50.946;14.610;2023-04-23T07:28:29;11.18;;;6.75;;
4198;SDS011;2113;50.946;14.610;2023-04-23T07:31:10;13.25;;;6.30;;
4198;SDS011;2113;50.946;14.610;2023-04-23T07:33:44;10.15;;;5.75;;
4198;SDS011;2113;50.946;14.610;2023-04-23T07:36:27;9.55;;;4.72;;
4198;SDS011;2113;50.946;14.610;2023-04-23T07:38:55;8.27;;;4.95;;
4198;SDS011;2113;50.946;14.610;2023-04-23T07:41:24;8.82;;;5.40;;
4198;SDS011;2113;50.946;14.610;2023-04-23T07:43:53;9.23;;;5.45;;
4198;SDS011;2113;50.946;14.610;2023-04-23T07:46:22;7.97;;;5.15;;
4198;SDS011;2113;50.946;14.610;2023-04-23T07:48:50;8.02;;;5.50;;
4198;SDS011;2113;50.946;14.610;2023-04-23T07:51:19;6.70;;;4.45;;
4198;SDS011;2113;50.946;14.610;2023-04-23T07:53:53;5.70;;;4.63;;
4198;SDS011;2113;50.946;14.610;2023-04-23T07:56:22;6.53;;;4.72;;
4198;SDS011;2113;50.946;14.610;2023-04-23T07:58:51;7.65;;;5.18;;
4198;SDS011;2113;50.946;14.610;2023-04-23T08:01:23;8.93;;;4.88;;
4198;SDS011;2113;50.946;14.610;2023-04-23T08:03:51;10.95;;;5.38;;
4198;SDS011;2113;50.946;14.610;2023-04-23T08:06:25;14.43;;;5.80;;
4198;SDS011;2113;50.946;14.610;2023-04-23T08:08:57;9.00;;;5.22;;
4198;SDS011;2113;50.946;14.610;2023-04-23T08:11:26;7.97;;;5.03;;
4198;SDS011;2113;50.946;14.610;2023-04-23T08:13:55;8.95;;;5.35;;
4198;SDS011;2113;50.946;14.610;2023-04-23T08:16:23;8.50;;;5.40;;
4198;SDS011;2113;50.946;14.610;2023-04-23T08:18:52;8.05;;;5.65;;
4198;SDS011;2113;50.946;14.610;2023-04-23T08:21:30;15.60;;;5.97;;
4198;SDS011;2113;50.946;14.610;2023-04-23T08:24:00;7.85;;;5.10;;
4198;SDS011;2113;50.946;14.610;2023-04-23T08:26:29;11.15;;;5.50;;
4198;SDS011;2113;50.946;14.610;2023-04-23T08:28:58;7.72;;;6.45;;
4198;SDS011;2113;50.946;14.610;2023-04-23T08:31:27;8.82;;;6.32;;
4198;SDS011;2113;50.946;14.610;2023-04-23T08:33:56;7.20;;;5.18;;
4198;SDS011;2113;50.946;14.610;2023-04-23T08:36:25;7.40;;;4.90;;
4198;SDS011;2113;50.946;14.610;2023-04-23T08:38:53;7.85;;;5.85;;
4198;SDS011;2113;50.946;14.610;2023-04-23T08:41:23;9.32;;;5.70;;
4198;SDS011;2113;50.946;14.610;2023-04-23T08:43:59;15.45;;;5.50;;
4198;SDS011;2113;50.946;14.610;2023-04-23T08:46:34;7.22;;;5.68;;
4198;SDS011;2113;50.946;14.610;2023-04-23T08:49:07;10.65;;;6.10;;
4198;SDS011;2113;50.946;14.610;2023-04-23T08:51:41;8.00;;;6.10;;
4198;SDS011;2113;50.946;14.610;2023-04-23T08:54:13;8.48;;;5.00;;
4198;SDS011;2113;50.946;14.610;2023-04-23T08:56:47;8.27;;;5.55;;
4198;SDS011;2113;50.946;14.610;2023-04-23T08:59:17;9.27;;;6.40;;
4198;SDS011;2113;50.946;14.610;2023-04-23T09:01:48;11.32;;;6.30;;
4198;SDS011;2113;50.946;14.610;2023-04-23T09:04:17;7.93;;;5.25;;
4198;SDS011;2113;50.946;14.610;2023-04-23T09:06:46;9.90;;;5.75;;
4198;SDS011;2113;50.946;14.610;2023-04-23T09:09:14;7.15;;;5.30;;
4198;SDS011;2113;50.946;14.610;2023-04-23T09:11:43;8.77;;;5.40;;
4198;SDS011;2113;50.946;14.610;2023-04-23T09:14:13;7.75;;;5.05;;
4198;SDS011;2113;50.946;14.610;2023-04-23T09:16:41;7.43;;;5.03;;
4198;SDS011;2113;50.946;14.610;2023-04-23T09:19:10;9.65;;;6.00;;
4198;SDS011;2113;50.946;14.610;2023-04-23T09:21:38;8.77;;;4.50;;
4198;SDS011;2113;50.946;14.610;2023-04-23T09:24:08;9.02;;;5.55;;
4198;SDS011;2113;50.946;14.610;2023-04-23T09:26:42;8.15;;;5.85;;
4198;SDS011;2113;50.946;14.610;2023-04-23T09:29:14;7.13;;;4.82;;
4198;SDS011;2113;50.946;14.610;2023-04-23T09:31:44;6.55;;;4.47;;
4198;SDS011;2113;50.946;14.610;2023-04-23T09:34:15;8.40;;;4.95;;
4198;SDS011;2113;50.946;14.610;2023-04-23T09:36:45;7.47;;;5.00;;
4198;SDS011;2113;50.946;14.610;2023-04-23T09:39:16;5.70;;;4.85;;
4198;SDS011;2113;50.946;14.610;2023-04-23T09:41:45;9.07;;;5.05;;
4198;SDS011;2113;50.946;14.610;2023-04-23T09:44:17;6.32;;;4.78;;
4198;SDS011;2113;50.946;14.610;2023-04-23T09:46:48;5.97;;;4.47;;
4198;SDS011;2113;50.946;14.610;2023-04-23T09:49:16;5.95;;;4.50;;
4198;SDS011;2113;50.946;14.610;2023-04-23T09:51:45;10.27;;;4.43;;
4198;SDS011;2113;50.946;14.610;2023-04-23T09:54:15;5.93;;;3.90;;
4198;SDS011;2113;50.946;14.610;2023-04-23T09:56:48;6.40;;;4.43;;
4198;SDS011;2113;50.946;14.610;2023-04-23T09:59:20;6.82;;;4.07;;
4198;SDS011;2113;50.946;14.610;2023-04-23T10:02:10;6.10;;;3.92;;
4198;SDS011;2113;50.946;14.610;2023-04-23T10:04:38;6.70;;;3.85;;
4198;SDS011;2113;50.946;14.610;2023-04-23T10:07:07;8.20;;;5.15;;
4198;SDS011;2113;50.946;14.610;2023-04-23T10:09:46;5.55;;;4.10;;
4198;SDS011;2113;50.946;14.610;2023-04-23T10:12:14;6.30;;;4.30;;
4198;SDS011;2113;50.946;14.610;2023-04-23T10:15:06;6.60;;;4.75;;
4198;SDS011;2113;50.946;14.610;2023-04-23T10:17:37;5.82;;;4.20;;
4198;SDS011;2113;50.946;14.610;2023-04-23T10:20:07;10.43;;;4.70;;
4198;SDS011;2113;50.946;14.610;2023-04-23T10:22:38;7.40;;;4.60;;
4198;SDS011;2113;50.946;14.610;2023-04-23T10:25:11;5.90;;;4.70;;
4198;SDS011;2113;50.946;14.610;2023-04-23T10:27:41;5.88;;;4.10;;
4198;SDS011;2113;50.946;14.610;2023-04-23T10:30:21;6.15;;;3.92;;
4198;SDS011;2113;50.946;14.610;2023-04-23T10:32:50;5.55;;;3.53;;
4198;SDS011;2113;50.946;14.610;2023-04-23T10:35:18;5.80;;;4.38;;
4198;SDS011;2113;50.946;14.610;2023-04-23T10:37:46;7.13;;;4.80;;
4198;SDS011;2113;50.946;14.610;2023-04-23T10:40:17;7.93;;;4.30;;
4198;SDS011;2113;50.946;14.610;2023-04-23T10:42:50;6.45;;;4.50;;
4198;SDS011;2113;50.946;14.610;2023-04-23T10:45:19;7.22;;;4.28;;
4198;SDS011;2113;50.946;14.610;2023-04-23T10:47:51;5.13;;;3.63;;
4198;SDS011;2113;50.946;14.610;2023-04-23T10:50:22;5.65;;;4.22;;
4198;SDS011;2113;50.946;14.610;2023-04-23T10:52:52;5.20;;;3.80;;
4198;SDS011;2113;50.946;14.610;2023-04-23T10:55:24;6.38;;;4.20;;
4198;SDS011;2113;50.946;14.610;2023-04-23T10:57:57;5.85;;;4.43;;
4198;SDS011;2113;50.946;14.610;2023-04-23T11:00:30;8.13;;;5.60;;
4198;SDS011;2113;50.946;14.610;2023-04-23T11:03:30;7.68;;;4.32;;
4198;SDS011;2113;50.946;14.610;2023-04-23T11:06:11;8.00;;;5.05;;
4198;SDS011;2113;50.946;14.610;2023-04-23T11:08:51;8.88;;;5.80;;
4198;SDS011;2113;50.946;14.610;2023-04-23T11:11:23;7.18;;;5.25;;
4198;SDS011;2113;50.946;14.610;2023-04-23T11:14:10;6.40;;;4.22;;
4198;SDS011;2113;50.946;14.610;2023-04-23T11:16:41;6.72;;;4.72;;
4198;SDS011;2113;50.946;14.610;2023-04-23T11:19:10;11.40;;;4.30;;
4198;SDS011;2113;50.946;14.610;2023-04-23T11:21:55;7.68;;;5.75;;
4198;SDS011;2113;50.946;14.610;2023-04-23T11:24:28;8.18;;;5.50;;
4198;SDS011;2113;50.946;14.610;2023-04-23T11:26:59;6.97;;;4.82;;
4198;SDS011;2113;50.946;14.610;2023-04-23T11:29:28;8.70;;;5.90;;
4198;SDS011;2113;50.946;14.610;2023-04-23T11:31:58;7.55;;;5.47;;
4198;SDS011;2113;50.946;14.610;2023-04-23T11:34:29;6.97;;;5.05;;
4198;SDS011;2113;50.946;14.610;2023-04-23T11:36:59;9.07;;;5.68;;
4198;SDS011;2113;50.946;14.610;2023-04-23T11:39:29;10.00;;;5.25;;
4198;SDS011;2113;50.946;14.610;2023-04-23T11:41:57;10.98;;;5.45;;
4198;SDS011;2113;50.946;14.610;2023-04-23T11:44:28;7.90;;;6.15;;
4198;SDS011;2113;50.946;14.610;2023-04-23T11:49:52;9.40;;;5.80;;
4198;SDS011;2113;50.946;14.610;2023-04-23T11:52:21;9.85;;;7.32;;
4198;SDS011;2113;50.946;14.610;2023-04-23T11:54:49;7.30;;;5.13;;
4198;SDS011;2113;50.946;14.610;2023-04-23T11:57:17;6.57;;;5.28;;
4198;SDS011;2113;50.946;14.610;2023-04-23T11:59:46;6.22;;;4.43;;
4198;SDS011;2113;50.946;14.610;2023-04-23T12:02:14;4.38;;;3.97;;
4198;SDS011;2113;50.946;14.610;2023-04-23T12:04:44;5.50;;;4.03;;
4198;SDS011;2113;50.946;14.610;2023-04-23T12:07:12;5.53;;;3.25;;
4198;SDS011;2113;50.946;14.610;2023-04-23T12:09:56;6.72;;;4.20;;
4198;SDS011;2113;50.946;14.610;2023-04-23T12:12:31;5.13;;;3.65;;
4198;SDS011;2113;50.946;14.610;2023-04-23T12:15:03;6.63;;;4.10;;
4198;SDS011;2113;50.946;14.610;2023-04-23T12:17:35;5.15;;;3.42;;
4198;SDS011;2113;50.946;14.610;2023-04-23T12:20:14;6.20;;;3.47;;
4198;SDS011;2113;50.946;14.610;2023-04-23T12:22:44;5.55;;;3.92;;
4198;SDS011;2113;50.946;14.610;2023-04-23T12:25:13;7.10;;;4.10;;
4198;SDS011;2113;50.946;14.610;2023-04-23T12:27:43;4.82;;;3.63;;
4198;SDS011;2113;50.946;14.610;2023-04-23T12:30:12;7.78;;;4.55;;
4198;SDS011;2113;50.946;14.610;2023-04-23T12:32:41;6.43;;;4.03;;
4198;SDS011;2113;50.946;14.610;2023-04-23T12:35:11;7.60;;;4.25;;
4198;SDS011;2113;50.946;14.610;2023-04-23T12:37:40;8.10;;;4.43;;
4198;SDS011;2113;50.946;14.610;2023-04-23T12:40:08;6.80;;;4.72;;
4198;SDS011;2113;50.946;14.610;2023-04-23T12:42:37;5.45;;;4.15;;
4198;SDS011;2113;50.946;14.610;2023-04-23T12:45:06;5.72;;;4.15;;
4198;SDS011;2113;50.946;14.610;2023-04-23T12:47:36;4.75;;;4.10;;
4198;SDS011;2113;50.946;14.610;2023-04-23T12:50:05;6.55;;;3.95;;
4198;SDS011;2113;50.946;14.610;2023-04-23T12:52:35;6.90;;;4.15;;
4198;SDS011;2113;50.946;14.610;2023-04-23T12:55:04;5.00;;;3.90;;
4198;SDS011;2113;50.946;14.610;2023-04-23T12:57:33;5.97;;;4.13;;
4198;SDS011;2113;50.946;14.610;2023-04-23T13:00:02;6.60;;;4.00;;
4198;SDS011;2113;50.946;14.610;2023-04-23T13:02:31;6.63;;;4.35;;
4198;SDS011;2113;50.946;14.610;2023-04-23T13:05:00;5.68;;;3.60;;
4198;SDS011;2113;50.946;14.610;2023-04-23T13:07:28;4.35;;;3.45;;
4198;SDS011;2113;50.946;14.610;2023-04-23T13:09:58;5.93;;;3.88;;
4198;SDS011;2113;50.946;14.610;2023-04-23T13:12:26;6.32;;;4.65;;
4198;SDS011;2113;50.946;14.610;2023-04-23T13:14:54;4.57;;;3.92;;
4198;SDS011;2113;50.946;14.610;2023-04-23T13:17:23;6.43;;;3.63;;
4198;SDS011;2113;50.946;14.610;2023-04-23T13:19:52;5.75;;;3.97;;
4198;SDS011;2113;50.946;14.610;2023-04-23T13:22:21;5.97;;;4.32;;
4198;SDS011;2113;50.946;14.610;2023-04-23T13:24:54;7.38;;;4.57;;
4198;SDS011;2113;50.946;14.610;2023-04-23T13:27:25;7.40;;;5.03;;
4198;SDS011;2113;50.946;14.610;2023-04-23T13:29:56;7.22;;;5.20;;
4198;SDS011;2113;50.946;14.610;2023-04-23T13:32:25;8.45;;;5.25;;
4198;SDS011;2113;50.946;14.610;2023-04-23T13:34:57;8.10;;;5.35;;
4198;SDS011;2113;50.946;14.610;2023-04-23T13:37:30;11.38;;;5.63;;
4198;SDS011;2113;50.946;14.610;2023-04-23T13:39:59;8.55;;;5.30;;
4198;SDS011;2113;50.946;14.610;2023-04-23T13:42:30;7.50;;;4.90;;
4198;SDS011;2113;50.946;14.610;2023-04-23T13:44:59;7.90;;;5.63;;
4198;SDS011;2113;50.946;14.610;2023-04-23T13:47:31;7.35;;;5.38;;
4198;SDS011;2113;50.946;14.610;2023-04-23T13:50:00;8.82;;;5.60;;
4198;SDS011;2113;50.946;14.610;2023-04-23T13:52:32;7.05;;;6.10;;
4198;SDS011;2113;50.946;14.610;2023-04-23T13:55:01;8.10;;;5.82;;
4198;SDS011;2113;50.946;14.610;2023-04-23T13:57:35;8.35;;;5.85;;
4198;SDS011;2113;50.946;14.610;2023-04-23T14:00:06;7.25;;;5.95;;
4198;SDS011;2113;50.946;14.610;2023-04-23T14:02:44;13.82;;;8.35;;
4198;SDS011;2113;50.946;14.610;2023-04-23T14:05:13;13.63;;;6.90;;
4198;SDS011;2113;50.946;14.610;2023-04-23T14:07:41;10.35;;;6.70;;
4198;SDS011;2113;50.946;14.610;2023-04-23T14:10:10;9.25;;;6.43;;
4198;SDS011;2113;50.946;14.610;2023-04-23T14:12:40;12.35;;;7.30;;
4198;SDS011;2113;50.946;14.610;2023-04-23T14:15:08;9.23;;;6.50;;
4198;SDS011;2113;50.946;14.610;2023-04-23T14:17:37;9.43;;;7.28;;
4198;SDS011;2113;50.946;14.610;2023-04-23T14:20:06;11.55;;;6.60;;
4198;SDS011;2113;50.946;14.610;2023-04-23T14:22:35;8.95;;;6.78;;
4198;SDS011;2113;50.946;14.610;2023-04-23T14:25:07;8.90;;;6.90;;
4198;SDS011;2113;50.946;14.610;2023-04-23T14:27:38;9.65;;;6.57;;
4198;SDS011;2113;50.946;14.610;2023-04-23T14:30:15;9.98;;;6.30;;
4198;SDS011;2113;50.946;14.610;2023-04-23T14:32:45;6.72;;;5.25;;
4198;SDS011;2113;50.946;14.610;2023-04-23T14:35:16;7.40;;;5.53;;
4198;SDS011;2113;50.946;14.610;2023-04-23T14:37:54;7.10;;;4.70;;
4198;SDS011;2113;50.946;14.610;2023-04-23T14:40:23;6.40;;;3.85;;
4198;SDS011;2113;50.946;14.610;2023-04-23T14:42:52;4.47;;;3.88;;
4198;SDS011;2113;50.946;14.610;2023-04-23T14:45:30;6.43;;;4.03;;
4198;SDS011;2113;50.946;14.610;2023-04-23T14:47:59;6.75;;;4.60;;
4198;SDS011;2113;50.946;14.610;2023-04-23T14:50:28;4.95;;;4.15;;
4198;SDS011;2113;50.946;14.610;2023-04-23T14:52:58;5.65;;;4.03;;
4198;SDS011;2113;50.946;14.610;2023-04-23T14:55:31;6.15;;;3.97;;
4198;SDS011;2113;50.946;14.610;2023-04-23T14:58:02;6.07;;;4.40;;
4198;SDS011;2113;50.946;14.610;2023-04-23T15:00:30;5.95;;;4.22;;
4198;SDS011;2113;50.946;14.610;2023-04-23T15:02:59;6.88;;;4.65;;
4198;SDS011;2113;50.946;14.610;2023-04-23T15:05:28;8.60;;;3.90;;
4198;SDS011;2113;50.946;14.610;2023-04-23T15:07:57;5.85;;;4.05;;
4198;SDS011;2113;50.946;14.610;2023-04-23T15:10:25;5.65;;;3.22;;
4198;SDS011;2113;50.946;14.610;2023-04-23T15:12:54;5.03;;;3.55;;
4198;SDS011;2113;50.946;14.610;2023-04-23T15:15:41;5.35;;;3.38;;
4198;SDS011;2113;50.946;14.610;2023-04-23T15:18:12;4.85;;;3.03;;
4198;SDS011;2113;50.946;14.610;2023-04-23T15:20:41;6.55;;;4.22;;
4198;SDS011;2113;50.946;14.610;2023-04-23T15:23:10;5.20;;;3.30;;
4198;SDS011;2113;50.946;14.610;2023-04-23T15:25:38;5.70;;;3.53;;